Terminal Aerodrome Forecast
Issued by NWS

Home | Current Version | Previous Version | Text Only | Print | Product List | Glossary On
Versions: 1 2 3 4 5 6 7 8 9 10 11 12 13 14 15 16 17 18 19 20 21 22 23 24 25 26 27 28
000
FTUS43 KIND 242343 AAA
TAFLAF
TAF AMD
KLAF 242343Z 2500/2524 27013G22KT P6SM VCTS OVC030CB
     FM250200 26013G20KT P6SM BKN030
     FM250700 27013KT P6SM BKN030
     FM251200 27014KT P6SM VCSH OVC025
     FM251400 28015G23KT P6SM OVC030
     FM251900 28017G25KT P6SM BKN035
      AMD LTD TO CLD VIS AND WIND 2502/2514=

USA.gov is the U.S. government's official web portal to all federal, state and local government web resources and services.